createdAt,value
2018-08-12T00:01:03.415Z,5.72
2018-08-12T00:03:35.987Z,4.92
2018-08-12T00:06:08.363Z,4.40
2018-08-12T00:08:41.472Z,5.25
2018-08-12T00:11:14.859Z,3.22
2018-08-12T00:13:46.719Z,4.22
2018-08-12T00:16:17.101Z,4.22
2018-08-12T00:18:47.879Z,6.25
2018-08-12T00:21:20.704Z,3.75
2018-08-12T00:23:51.131Z,5.65
2018-08-12T00:26:21.410Z,1.10
2018-08-12T00:28:56.282Z,3.62
2018-08-12T00:31:27.873Z,4.67
2018-08-12T00:33:58.407Z,4.10
2018-08-12T00:36:52.795Z,5.12
2018-08-12T00:39:23.225Z,5.20
2018-08-12T00:41:54.004Z,6.15
2018-08-12T00:44:24.280Z,4.72
2018-08-12T00:46:57.480Z,2.00
2018-08-12T00:49:29.240Z,6.10
2018-08-12T00:51:59.572Z,3.87
2018-08-12T00:54:39.000Z,5.65
2018-08-12T00:57:12.603Z,5.65
2018-08-12T00:59:46.234Z,4.28
2018-08-12T01:02:21.848Z,5.67
2018-08-12T01:04:53.307Z,4.67
2018-08-12T01:07:28.118Z,7.25
2018-08-12T01:09:59.105Z,3.62
2018-08-12T01:12:30.009Z,5.42
2018-08-12T01:15:01.527Z,3.27
2018-08-12T01:17:34.471Z,3.45
2018-08-12T01:22:52.499Z,4.03
2018-08-12T01:25:27.550Z,4.10
2018-08-12T01:27:59.047Z,6.15
2018-08-12T01:30:30.579Z,3.83
2018-08-12T01:33:03.118Z,2.92
2018-08-12T01:35:34.458Z,4.95
2018-08-12T01:38:09.297Z,5.80
2018-08-12T01:40:43.710Z,3.77
2018-08-12T01:43:15.190Z,5.60
2018-08-12T01:45:46.855Z,4.20
2018-08-12T01:48:17.890Z,6.95
2018-08-12T01:50:50.985Z,4.85
2018-08-12T01:53:23.262Z,4.97
2018-08-12T01:55:57.166Z,4.10
2018-08-12T01:58:29.222Z,4.55
2018-08-12T02:01:02.638Z,6.28
2018-08-12T02:03:34.853Z,5.92
2018-08-12T02:06:05.944Z,7.12
2018-08-12T02:08:36.618Z,7.65
2018-08-12T02:11:08.376Z,5.58
2018-08-12T02:13:40.768Z,5.22
2018-08-12T02:16:15.577Z,6.33
2018-08-12T02:18:48.870Z,5.78
2018-08-12T02:21:20.855Z,9.53
2018-08-12T02:23:52.896Z,5.45
2018-08-12T02:26:24.250Z,5.90
2018-08-12T02:28:58.468Z,4.58
2018-08-12T02:31:29.696Z,6.58
2018-08-12T02:34:01.498Z,6.50
2018-08-12T02:36:31.812Z,6.00
2018-08-12T02:39:02.714Z,7.37
2018-08-12T02:41:34.104Z,8.90
2018-08-12T02:44:10.100Z,5.97
2018-08-12T02:46:43.911Z,6.10
2018-08-12T02:49:17.364Z,5.22
2018-08-12T02:51:50.938Z,9.40
2018-08-12T02:54:23.398Z,6.00
2018-08-12T02:56:56.058Z,4.80
2018-08-12T02:59:27.358Z,9.55
2018-08-12T03:02:03.644Z,5.92
2018-08-12T03:04:33.742Z,5.17
2018-08-12T03:07:04.238Z,6.97
2018-08-12T03:09:36.635Z,5.00
2018-08-12T03:12:10.771Z,6.62
2018-08-12T03:14:45.235Z,5.65
2018-08-12T03:17:18.966Z,6.20
2018-08-12T03:19:52.786Z,9.75
2018-08-12T03:22:24.913Z,7.62
2018-08-12T03:24:58.544Z,8.05
2018-08-12T03:27:29.603Z,9.23
2018-08-12T03:30:01.066Z,8.70
2018-08-12T03:32:31.430Z,9.58
2018-08-12T03:35:02.062Z,8.63
2018-08-12T03:37:35.356Z,8.43
2018-08-12T03:40:09.832Z,6.87
2018-08-12T03:42:43.990Z,6.67
2018-08-12T03:45:16.872Z,9.20
2018-08-12T03:47:49.604Z,7.10
2018-08-12T03:50:22.155Z,7.80
2018-08-12T03:52:56.548Z,7.42
2018-08-12T03:55:29.504Z,9.08
2018-08-12T03:58:00.852Z,7.12
2018-08-12T04:00:32.360Z,7.45
2018-08-12T04:03:03.605Z,7.80
2018-08-12T04:05:36.871Z,9.45
2018-08-12T04:08:10.470Z,10.20
2018-08-12T04:10:43.586Z,7.58
2018-08-12T04:13:16.858Z,6.67
2018-08-12T04:15:48.970Z,11.05
2018-08-12T04:18:21.922Z,6.55
2018-08-12T04:20:56.141Z,8.78
2018-08-12T04:23:29.640Z,8.35
2018-08-12T04:26:03.645Z,9.20
2018-08-12T04:28:35.726Z,7.90
2018-08-12T04:31:08.267Z,6.45
2018-08-12T04:33:38.415Z,7.20
2018-08-12T04:36:08.971Z,9.05
2018-08-12T04:38:41.382Z,5.83
2018-08-12T04:41:11.820Z,6.03
2018-08-12T04:43:45.359Z,4.08
2018-08-12T04:46:18.146Z,6.70
2018-08-12T04:48:49.848Z,6.12
2018-08-12T04:51:22.729Z,6.80
2018-08-12T04:53:54.039Z,6.12
2018-08-12T04:56:26.354Z,6.45
2018-08-12T04:59:00.684Z,9.05
2018-08-12T05:01:31.007Z,10.03
2018-08-12T05:04:04.299Z,4.40
2018-08-12T05:06:37.331Z,7.12
2018-08-12T05:09:15.125Z,4.22
2018-08-12T05:11:45.407Z,6.47
2018-08-12T05:14:16.449Z,6.33
2018-08-12T05:16:52.846Z,7.42
2018-08-12T05:19:26.210Z,5.50
2018-08-12T05:21:58.451Z,4.28
2018-08-12T05:24:28.910Z,4.67
2018-08-12T05:26:59.549Z,6.35
2018-08-12T05:29:30.401Z,5.87
2018-08-12T05:32:02.145Z,7.08
2018-08-12T05:34:33.693Z,5.42
2018-08-12T05:37:04.432Z,4.47
2018-08-12T05:39:35.008Z,5.95
2018-08-12T05:42:06.791Z,6.55
2018-08-12T05:44:36.994Z,7.67
2018-08-12T05:47:07.653Z,6.42
2018-08-12T05:49:39.317Z,5.40
2018-08-12T05:52:13.955Z,6.05
2018-08-12T05:54:47.929Z,5.85
2018-08-12T05:57:20.833Z,4.25
2018-08-12T05:59:51.649Z,5.60
2018-08-12T06:02:22.103Z,7.10
2018-08-12T06:04:54.054Z,6.00
2018-08-12T06:07:26.764Z,5.75
2018-08-12T06:09:57.025Z,5.85
2018-08-12T06:12:27.177Z,5.58
2018-08-12T06:15:01.696Z,5.25
2018-08-12T06:17:34.209Z,5.08
2018-08-12T06:20:08.648Z,5.40
2018-08-12T06:22:40.518Z,6.20
2018-08-12T06:25:14.370Z,6.87
2018-08-12T06:27:48.996Z,5.67
2018-08-12T06:30:21.783Z,5.58
2018-08-12T06:32:54.762Z,5.20
2018-08-12T06:37:59.332Z,5.78
2018-08-12T06:40:29.660Z,6.05
2018-08-12T06:43:03.240Z,5.15
2018-08-12T06:45:37.302Z,5.25
2018-08-12T06:48:11.020Z,5.03
2018-08-12T06:50:41.407Z,6.47
2018-08-12T06:53:24.300Z,3.92
2018-08-12T06:55:56.763Z,5.75
2018-08-12T06:58:29.491Z,4.35
2018-08-12T07:01:00.524Z,7.60
2018-08-12T07:03:31.204Z,2.40
2018-08-12T07:06:03.286Z,5.83
2018-08-12T07:08:36.867Z,5.35
2018-08-12T07:11:10.596Z,6.50
2018-08-12T07:13:41.219Z,4.15
2018-08-12T07:16:12.909Z,4.58
2018-08-12T07:18:43.732Z,3.55
2018-08-12T07:21:15.540Z,3.20
2018-08-12T07:23:46.764Z,3.17
2018-08-12T07:26:17.393Z,5.55
2018-08-12T07:28:54.298Z,2.37
2018-08-12T07:31:27.734Z,3.15
2018-08-12T07:33:58.131Z,3.25
2018-08-12T07:36:28.567Z,2.42
2018-08-12T07:38:59.197Z,2.40
2018-08-12T07:41:31.345Z,6.28
2018-08-12T07:44:03.666Z,2.60
2018-08-12T07:46:36.031Z,3.75
2018-08-12T07:49:08.873Z,2.77
2018-08-12T07:51:39.598Z,3.70
2018-08-12T07:54:10.772Z,3.77
2018-08-12T07:56:44.448Z,4.40
2018-08-12T07:59:15.487Z,2.65
2018-08-12T08:01:46.782Z,3.60
2018-08-12T08:04:18.959Z,2.83
2018-08-12T08:06:49.742Z,3.05
2018-08-12T08:09:20.626Z,2.80
2018-08-12T08:11:51.918Z,3.12
2018-08-12T08:14:26.895Z,3.42
2018-08-12T08:16:57.435Z,2.55
2018-08-12T08:19:27.956Z,6.25
2018-08-12T08:21:59.117Z,1.42
2018-08-12T08:24:30.906Z,2.47
2018-08-12T08:27:04.507Z,2.65
2018-08-12T08:29:41.288Z,3.77
2018-08-12T08:32:15.415Z,2.80
2018-08-12T08:34:45.728Z,3.27
2018-08-12T08:37:18.443Z,1.62
2018-08-12T08:39:49.042Z,2.10
2018-08-12T08:42:19.103Z,4.30
2018-08-12T08:44:50.059Z,3.87
2018-08-12T08:47:20.317Z,1.67
2018-08-12T08:49:52.994Z,4.33
2018-08-12T08:52:23.308Z,4.83
2018-08-12T08:54:56.395Z,1.55
2018-08-12T08:57:29.483Z,2.70
2018-08-12T09:00:02.598Z,4.10
2018-08-12T09:02:36.231Z,3.25
2018-08-12T09:05:10.590Z,3.25
2018-08-12T09:07:41.858Z,4.08
2018-08-12T09:10:14.349Z,1.47
2018-08-12T09:12:48.278Z,3.15
2018-08-12T09:15:21.660Z,2.98
2018-08-12T09:17:52.296Z,1.30
2018-08-12T09:20:24.969Z,3.30
2018-08-12T09:22:56.024Z,2.20
2018-08-12T09:25:26.397Z,2.27
2018-08-12T09:27:57.482Z,2.20
2018-08-12T09:30:27.864Z,2.65
2018-08-12T09:32:58.419Z,2.83
2018-08-12T09:35:30.552Z,2.22
2018-08-12T09:38:03.237Z,2.25
2018-08-12T09:40:38.383Z,1.27
2018-08-12T09:43:12.944Z,5.08
2018-08-12T09:45:44.258Z,1.42
2018-08-12T09:48:18.862Z,1.67
2018-08-12T09:50:50.037Z,3.92
2018-08-12T09:53:23.759Z,1.22
2018-08-12T09:55:56.568Z,1.45
2018-08-12T09:58:29.693Z,3.30
2018-08-12T10:01:00.420Z,2.37
2018-08-12T10:03:32.182Z,2.67
2018-08-12T10:06:02.752Z,2.98
2018-08-12T10:08:33.131Z,4.12
2018-08-12T10:11:04.827Z,1.70
2018-08-12T10:13:35.785Z,1.65
2018-08-12T10:16:09.778Z,4.15
2018-08-12T10:18:40.609Z,2.58
2018-08-12T10:21:11.802Z,2.55
2018-08-12T10:23:44.025Z,1.02
2018-08-12T10:26:15.789Z,2.52
2018-08-12T10:28:46.309Z,1.50
2018-08-12T10:31:17.623Z,2.55
2018-08-12T10:33:48.608Z,4.22
2018-08-12T10:36:23.187Z,1.82
2018-08-12T10:38:55.705Z,2.02
2018-08-12T10:44:08.733Z,0.90
2018-08-12T10:46:41.011Z,1.47
2018-08-12T10:49:15.438Z,1.32
2018-08-12T10:51:47.693Z,2.42
2018-08-12T10:54:19.812Z,3.27
2018-08-12T10:56:52.993Z,2.85
2018-08-12T10:59:28.316Z,2.27
2018-08-12T11:02:01.070Z,1.60
2018-08-12T11:04:31.983Z,3.25
2018-08-12T11:07:03.127Z,3.77
2018-08-12T11:09:34.852Z,2.67
2018-08-12T11:12:08.694Z,2.42
2018-08-12T11:17:23.035Z,2.05
2018-08-12T11:19:53.362Z,2.55
2018-08-12T11:22:23.721Z,2.58
2018-08-12T11:24:57.223Z,2.22
2018-08-12T11:27:32.048Z,1.98
2018-08-12T11:30:03.419Z,1.72
2018-08-12T11:32:33.748Z,0.98
2018-08-12T11:35:05.782Z,1.80
2018-08-12T11:37:38.362Z,2.47
2018-08-12T11:40:18.596Z,2.33
2018-08-12T11:42:49.420Z,2.08
2018-08-12T11:45:22.044Z,2.00
2018-08-12T11:47:56.775Z,2.72
2018-08-12T11:53:21.901Z,3.15
2018-08-12T11:55:53.221Z,3.45
2018-08-12T11:58:23.608Z,3.40
2018-08-12T12:00:54.137Z,4.58
2018-08-12T12:03:24.608Z,4.30
2018-08-12T12:05:56.737Z,7.25
2018-08-12T12:08:27.713Z,8.00
2018-08-12T12:10:58.768Z,7.08
2018-08-12T12:13:29.190Z,7.42
2018-08-12T12:16:03.090Z,7.45
2018-08-12T12:18:42.687Z,6.75
2018-08-12T12:21:14.960Z,11.12
2018-08-12T12:23:46.542Z,7.85
2018-08-12T12:26:18.295Z,10.08
2018-08-12T12:28:49.188Z,7.97
2018-08-12T12:31:21.678Z,8.68
2018-08-12T12:33:53.160Z,9.73
2018-08-12T12:36:24.731Z,13.45
2018-08-12T12:38:56.597Z,7.17
2018-08-12T12:41:28.823Z,9.38
2018-08-12T12:44:01.749Z,8.88
2018-08-12T12:46:35.580Z,7.08
2018-08-12T12:49:06.316Z,8.90
2018-08-12T12:51:38.875Z,9.43
2018-08-12T12:54:09.289Z,8.78
2018-08-12T12:56:39.534Z,3.95
2018-08-12T12:59:10.536Z,9.70
2018-08-12T13:01:41.233Z,7.17
2018-08-12T13:04:14.770Z,9.40
2018-08-12T13:06:45.742Z,8.68
2018-08-12T13:11:49.891Z,10.32
2018-08-12T13:14:20.761Z,9.45
2018-08-12T13:16:51.537Z,10.93
2018-08-12T13:19:22.484Z,10.00
2018-08-12T13:21:57.104Z,10.23
2018-08-12T13:24:27.753Z,9.60
2018-08-12T13:26:58.517Z,9.28
2018-08-12T13:29:30.512Z,11.18
2018-08-12T13:32:03.880Z,12.05
2018-08-12T13:34:35.116Z,10.30
2018-08-12T13:37:08.622Z,10.10
2018-08-12T13:39:44.899Z,11.35
2018-08-12T13:42:16.496Z,10.88
2018-08-12T13:44:50.754Z,9.00
2018-08-12T13:47:26.260Z,9.65
2018-08-12T13:49:57.239Z,9.85
2018-08-12T13:52:28.352Z,9.03
2018-08-12T13:55:00.149Z,8.70
2018-08-12T13:57:30.915Z,9.73
2018-08-12T14:00:05.643Z,19.95
2018-08-12T14:02:36.271Z,9.73
2018-08-12T14:05:08.555Z,9.38
2018-08-12T14:07:39.516Z,10.03
2018-08-12T14:10:11.901Z,13.18
2018-08-12T14:12:47.736Z,11.70
2018-08-12T14:15:21.972Z,10.25
2018-08-12T14:17:57.134Z,10.50
2018-08-12T14:20:29.078Z,11.55
2018-08-12T14:23:01.363Z,12.33
2018-08-12T14:25:32.784Z,11.48
2018-08-12T14:28:03.525Z,11.73
2018-08-12T14:30:34.003Z,12.28
2018-08-12T14:33:06.115Z,12.33
2018-08-12T14:35:36.743Z,11.73
2018-08-12T14:38:08.711Z,11.75
2018-08-12T14:40:39.287Z,12.58
2018-08-12T14:43:09.775Z,11.50
2018-08-12T14:45:40.039Z,11.88
2018-08-12T14:48:11.341Z,10.08
2018-08-12T14:50:45.989Z,10.95
2018-08-12T14:53:16.544Z,10.45
2018-08-12T14:55:47.423Z,11.10
2018-08-12T14:58:18.099Z,10.05
2018-08-12T15:00:48.516Z,8.53
2018-08-12T15:03:25.413Z,9.20
2018-08-12T15:05:58.546Z,9.45
2018-08-12T15:08:29.278Z,9.28
2018-08-12T15:10:59.977Z,7.53
2018-08-12T15:13:30.365Z,9.03
2018-08-12T15:16:02.915Z,7.87
2018-08-12T15:18:36.441Z,8.20
2018-08-12T15:21:08.069Z,8.70
2018-08-12T15:26:26.030Z,8.98
2018-08-12T15:28:58.197Z,8.05
2018-08-12T15:31:28.734Z,8.53
2018-08-12T15:36:46.196Z,7.75
2018-08-12T15:39:18.890Z,8.65
2018-08-12T15:41:49.934Z,8.60
2018-08-12T15:44:21.635Z,7.85
2018-08-12T15:49:50.231Z,8.55
2018-08-12T15:52:23.215Z,8.33
2018-08-12T15:54:54.724Z,6.58
2018-08-12T15:57:29.085Z,7.58
2018-08-12T16:00:02.247Z,8.65
2018-08-12T16:02:36.750Z,9.93
2018-08-12T16:05:10.403Z,10.48
2018-08-12T16:07:43.785Z,10.08
2018-08-12T16:10:20.997Z,14.78
2018-08-12T16:12:53.664Z,7.95
2018-08-12T16:15:24.501Z,8.35
2018-08-12T16:17:54.955Z,8.73
2018-08-12T16:20:25.289Z,7.15
2018-08-12T16:22:55.992Z,7.60
2018-08-12T16:25:29.026Z,6.85
2018-08-12T16:28:00.055Z,6.80
2018-08-12T16:30:33.063Z,7.47
2018-08-12T16:33:03.577Z,7.08
2018-08-12T16:35:36.009Z,6.60
2018-08-12T16:38:06.898Z,7.40
2018-08-12T16:40:38.182Z,6.30
2018-08-12T16:43:08.655Z,6.03
2018-08-12T16:45:39.503Z,7.03
2018-08-12T16:48:10.115Z,6.67
2018-08-12T16:50:43.193Z,6.40
2018-08-12T16:53:14.116Z,6.83
2018-08-12T16:55:44.666Z,7.95
2018-08-12T16:58:17.172Z,7.28
2018-08-12T17:00:49.988Z,6.50
2018-08-12T17:03:20.564Z,6.12
2018-08-12T17:05:53.141Z,5.80
2018-08-12T17:08:23.562Z,7.33
2018-08-12T17:10:56.354Z,5.97
2018-08-12T17:13:28.677Z,7.78
2018-08-12T17:16:08.568Z,7.60
2018-08-12T17:18:39.447Z,5.75
2018-08-12T17:21:12.840Z,8.28
2018-08-12T17:23:43.359Z,5.78
2018-08-12T17:26:13.910Z,5.67
2018-08-12T17:28:44.556Z,5.05
2018-08-12T17:31:23.419Z,6.58
2018-08-12T17:33:54.979Z,5.08
2018-08-12T17:36:27.110Z,4.45
2018-08-12T17:38:57.599Z,5.22
2018-08-12T17:41:34.853Z,4.08
2018-08-12T17:44:07.773Z,4.97
2018-08-12T17:46:41.755Z,4.60
2018-08-12T17:49:13.867Z,5.15
2018-08-12T17:51:45.093Z,5.15
2018-08-12T17:54:19.531Z,4.37
2018-08-12T17:56:50.756Z,6.80
2018-08-12T17:59:23.951Z,5.75
2018-08-12T18:01:54.444Z,4.92
2018-08-12T18:04:25.677Z,4.12
2018-08-12T18:06:58.263Z,4.75
2018-08-12T18:09:29.282Z,3.85
2018-08-12T18:12:00.129Z,3.67
2018-08-12T18:14:31.311Z,5.17
2018-08-12T18:17:03.382Z,6.47
2018-08-12T18:19:35.414Z,3.80
2018-08-12T18:22:13.675Z,4.05
2018-08-12T18:24:45.567Z,5.08
2018-08-12T18:27:16.538Z,4.00
2018-08-12T18:29:47.358Z,3.58
2018-08-12T18:32:19.984Z,5.47
2018-08-12T18:34:54.615Z,3.90
2018-08-12T18:37:27.670Z,3.83
2018-08-12T18:39:59.567Z,4.67
2018-08-12T18:42:30.826Z,5.58
2018-08-12T18:45:03.472Z,4.50
2018-08-12T18:47:35.830Z,4.62
2018-08-12T18:50:12.349Z,4.60
2018-08-12T18:52:44.823Z,5.47
2018-08-12T18:55:15.458Z,6.60
2018-08-12T18:57:46.637Z,4.67
2018-08-12T19:00:17.687Z,4.78
2018-08-12T19:02:52.261Z,6.20
2018-08-12T19:05:22.741Z,5.80
2018-08-12T19:07:56.776Z,5.72
2018-08-12T19:10:27.434Z,6.30
2018-08-12T19:12:59.703Z,5.67
2018-08-12T19:15:31.882Z,6.60
2018-08-12T19:18:02.523Z,6.67
2018-08-12T19:20:34.786Z,5.60
2018-08-12T19:23:06.384Z,5.67
2018-08-12T19:25:38.297Z,11.25
2018-08-12T19:28:11.910Z,7.28
2018-08-12T19:30:43.500Z,7.25
2018-08-12T19:33:16.177Z,7.05
2018-08-12T19:35:47.131Z,6.50
2018-08-12T19:38:19.023Z,6.72
2018-08-12T19:40:50.589Z,6.50
2018-08-12T19:43:23.624Z,6.95
2018-08-12T19:45:54.660Z,6.83
2018-08-12T19:48:36.828Z,6.28
2018-08-12T19:51:14.287Z,7.00
2018-08-12T19:53:51.585Z,7.33
2018-08-12T19:56:28.577Z,6.42
2018-08-12T19:59:04.612Z,7.05
2018-08-12T20:01:37.829Z,6.72
2018-08-12T20:06:56.116Z,6.70
2018-08-12T20:09:31.269Z,6.55
2018-08-12T20:12:15.813Z,6.78
2018-08-12T20:14:51.355Z,6.50
2018-08-12T20:17:28.808Z,7.10
2018-08-12T20:23:00.886Z,7.17
2018-08-12T20:25:53.589Z,6.00
2018-08-12T20:28:27.803Z,6.08
2018-08-12T20:31:00.412Z,6.90
2018-08-12T20:33:34.450Z,5.90
2018-08-12T20:41:48.902Z,5.85
2018-08-12T20:44:21.413Z,6.00
2018-08-12T20:46:53.040Z,5.83
2018-08-12T20:49:29.040Z,6.17
2018-08-12T20:52:02.518Z,6.37
2018-08-12T20:54:33.278Z,5.75
2018-08-12T20:57:05.336Z,6.75
2018-08-12T20:59:38.737Z,5.75
2018-08-12T21:08:15.712Z,6.30
2018-08-12T21:10:46.604Z,6.60
2018-08-12T21:13:21.967Z,6.80
2018-08-12T21:18:40.761Z,5.83
2018-08-12T21:21:18.265Z,5.65
2018-08-12T21:23:52.366Z,6.08
2018-08-12T21:29:19.943Z,6.47
2018-08-12T21:34:32.658Z,6.20
2018-08-12T21:37:09.261Z,5.95
2018-08-12T21:39:40.713Z,6.35
2018-08-12T21:42:11.569Z,6.40
2018-08-12T21:44:43.705Z,6.33
2018-08-12T21:47:14.700Z,8.20
2018-08-12T21:49:47.323Z,5.97
2018-08-12T21:52:24.024Z,5.85
2018-08-12T21:55:07.459Z,6.10
2018-08-12T21:57:44.653Z,7.37
2018-08-12T22:00:18.921Z,6.60
2018-08-12T22:02:56.309Z,6.45
2018-08-12T22:05:30.305Z,6.00
2018-08-12T22:11:17.592Z,6.62
2018-08-12T22:17:03.257Z,7.78
2018-08-12T22:32:37.306Z,8.28
2018-08-12T22:38:40.857Z,8.38
2018-08-12T23:11:15.335Z,8.28
2018-08-12T23:19:42.453Z,8.75
2018-08-12T23:22:23.045Z,9.28
2018-08-12T23:25:18.584Z,7.97
2018-08-12T23:27:51.098Z,9.30
2018-08-12T23:30:30.143Z,8.75
2018-08-12T23:33:02.204Z,9.35
2018-08-12T23:38:38.594Z,8.80
2018-08-12T23:44:17.337Z,9.58
2018-08-12T23:47:07.320Z,9.38
